Terminal Aerodrome Forecast
Issued by NWS Norman, OK

Home | Current Version | Previous Version | Text Only | Print | Product List | Glossary On
Versions: 1 2 3 4 5 6 7 8 9 10 11 12 13 14 15 16 17 18 19 20 21 22 23 24 25
000
FTUS44 KOUN 261742
TAFOKC
TAF
KOKC 261742Z 2618/2718 07014G20KT P6SM SCT020
     FM262300 08015G22KT P6SM BKN040
      TEMPO 2701/2704 2SM TSRA OVC030CB
     FM270400 05016G23KT 4SM -TSRA BR OVC030CB
      TEMPO 2704/2708 1SM TSRA BR OVC015CB
     FM270800 07016G24KT 5SM RA BR BKN008 OVC015
     FM271500 06012KT P6SM OVC020 PROB30 2715/2718 -RA=

USA.gov is the U.S. government's official web portal to all federal, state and local government web resources and services.